Flight Track Log - Related Links

Times and Time Zones

All times are in EDT time to prevent confusion due to time zone crossing. See the AWI3673 flight status page for this flight to view local times or setup timezone preferences in your user account.

Time Position Orientation Groundspeed Altitude Reporting Facility
EDT Latitude Longitude Course Direction KTS MPH feet Rate Location/Type
Wed 05:36:15 PM 36.8825 -76.2178 253° West 148 170 700  Level Washington Center
Wed 05:36:55 PM 36.8617 -76.2331 210° Southwest 152 175 2,000 1,732 Climbing Washington Center
Wed 05:37:52 PM 36.8258 -76.2847 229° Southwest 236 272 3,500 1,821 Climbing Washington Center
Wed 05:38:00 PM 36.8135 -76.5193 258° West  Level FlightAware Approximate
Wed 05:38:47 PM 36.8150 -76.3572 259° West 250 288 5,400  Level Washington Center
Wed 05:39:00 PM 36.7951 -76.6294 258° West  Level FlightAware Approximate
Wed 05:39:47 PM 36.7997 -76.4428 257° West 262 302 7,500  Level Washington Center
Wed 05:40:00 PM 36.7738 -76.7385 253° West  Level FlightAware Approximate
Wed 05:40:45 PM 36.7867 -76.5308 260° West 262 302 9,500  Level Washington Center
Wed 05:41:00 PM 36.7469 -76.8458 253° West  Level FlightAware Approximate
Wed 05:41:46 PM 36.7733 -76.6267 260° West 267 307 11,500  Level Washington Center
Wed 05:42:46 PM 36.7578 -76.7197 258° West 280 322 13,100 1,714 Climbing Washington Center
Wed 05:43:45 PM 36.7422 -76.8231 259° West 286 329 14,900 1,686 Climbing Washington Center
Wed 05:44:47 PM 36.7267 -76.9292 260° West 305 351 16,500 1,317 Climbing Washington Center
Wed 05:45:48 PM 36.7003 -77.0400 253° West 316 364 17,600 1,373 Climbing Washington Center
Wed 05:46:45 PM 36.6531 -77.1428 240° Southwest 329 379 19,200 1,424 Climbing Washington Center
Wed 05:47:46 PM 36.6058 -77.2428 240° Southwest 334 384 20,400 1,140 Climbing Washington Center
Wed 05:48:46 PM 36.5583 -77.3478 241° Southwest 345 397 21,500 800 Climbing Washington Center
Wed 05:49:46 PM 36.5089 -77.4550 240° Southwest 356 410 22,000 252 Climbing Washington Center
Wed 05:50:45 PM 36.4547 -77.5675 239° Southwest 362 417 22,000  Level Washington Center
Wed 05:51:45 PM 36.4094 -77.6644 240° Southwest 368 423 22,000  Level Washington Center
Wed 05:52:46 PM 36.3572 -77.7764 240° Southwest 374 430 22,000  Level Washington Center
Wed 05:53:47 PM 36.3053 -77.8886 240° Southwest 374 430 22,000  Level Washington Center
Wed 05:54:45 PM 36.2528 -78.0003 240° Southwest 374 430 22,000  Level Washington Center
Wed 05:55:46 PM 36.2006 -78.1119 240° Southwest 374 430 22,000  Level Washington Center
Wed 05:56:47 PM 36.1458 -78.2258 239° Southwest 374 430 22,000  Level Washington Center
Wed 05:57:47 PM 36.0911 -78.3372 239° Southwest 374 430 22,000  Level Washington Center
Wed 05:58:45 PM 36.0386 -78.4483 240° Southwest 374 430 22,000  Level Washington Center
Wed 05:59:46 PM 35.9836 -78.5619 239° Southwest 374 430 22,000  Level Washington Center
Wed 06:00:47 PM 35.9286 -78.6753 239° Southwest 374 430 22,000  Level Washington Center
Wed 06:01:47 PM 35.8775 -78.7886 241° Southwest 374 430 22,000  Level Washington Center
Wed 06:02:45 PM 35.8636 -78.9161 262° West 374 430 22,000  Level Washington Center
Wed 06:03:45 PM 35.8539 -79.0467 265° West 374 430 22,000 -804 Level Washington Center
Wed 06:05:44 PM 35.8356 -79.3028 265° West 393 452 19,600 -1,274 Descending Atlanta Center
Wed 06:06:44 PM 35.8256 -79.4236 264° West 387 445 18,200 -1,300 Descending Atlanta Center
Wed 06:07:44 PM 35.8175 -79.5444 265° West 375 432 17,000 -600 Descending Atlanta Center
Wed 06:08:44 PM 35.8097 -79.6781 266° West 361 415 17,000  Level Atlanta Center
Wed 06:09:44 PM 35.8117 -79.7881 271° West 355 409 17,000 -50 Level Atlanta Center
Wed 06:10:44 PM 35.8108 -79.8906 269° West 335 386 16,900 -650 Descending Atlanta Center
Wed 06:11:44 PM 35.8247 -79.9972 279° West 322 371 15,700 -1,150 Descending Atlanta Center
Wed 06:12:44 PM 35.8344 -80.0992 277° West 311 358 14,600 -1,302 Descending Atlanta Center
Wed 06:13:30 PM 35.8289 -80.1917 266° West 279 321 13,400 -850 Descending Atlanta Center
Wed 06:14:44 PM 35.8194 -80.2894 263° West 280 322 12,900 -383 Descending Atlanta Center
Wed 06:15:51 PM 35.8128 -80.4153 266° West 303 349 12,500 -656 Descending Atlanta Center
Wed 06:16:52 PM 35.7544 -80.4844 224° Southwest 296 341 11,500 -1,062 Descending Atlanta Center
Wed 06:17:44 PM 35.6886 -80.5206 204° Southwest 276 318 10,500 -1,232 Descending Atlanta Center
Wed 06:18:44 PM 35.6128 -80.5622 204° Southwest 288 331 9,200 -1,300 Descending Atlanta Center
Wed 06:19:44 PM 35.5386 -80.5983 202° Southwest 293 337 7,900 -1,300 Descending Atlanta Center
Wed 06:20:44 PM 35.4667 -80.6372 204° Southwest 288 331 6,600 -1,000 Descending Atlanta Center
Wed 06:21:44 PM 35.4033 -80.6831 211° Southwest 281 323 5,900 -950 Descending Atlanta Center
Wed 06:22:44 PM 35.3631 -80.7381 228° Southwest 242 278 4,700 -1,030 Descending Atlanta Center
Wed 06:23:58 PM 35.3228 -80.7933 228° Southwest 158 182 3,600 -892 Descending Atlanta Center

Login

Don't have an account? Register now (free) for customized features, flight alerts, and more!